sensor_id;sensor_type;location;lat;lon;timestamp;pressure;altitude;pressure_sealevel;temperature;humidity
22389;BME280;11362;48.102;11.620;2023-07-31T00:02:08;95449.63;;;24.88;47.67
22389;BME280;11362;48.102;11.620;2023-07-31T00:04:33;95440.53;;;24.87;47.60
22389;BME280;11362;48.102;11.620;2023-07-31T00:06:58;95453.22;;;24.88;47.73
22389;BME280;11362;48.102;11.620;2023-07-31T00:09:24;95441.31;;;24.88;47.77
22389;BME280;11362;48.102;11.620;2023-07-31T00:11:49;95447.66;;;24.88;47.74
22389;BME280;11362;48.102;11.620;2023-07-31T00:14:14;95444.06;;;24.88;47.69
22389;BME280;11362;48.102;11.620;2023-07-31T00:16:39;95440.53;;;24.87;47.76
22389;BME280;11362;48.102;11.620;2023-07-31T00:22:19;95438.16;;;24.86;47.79
22389;BME280;11362;48.102;11.620;2023-07-31T00:24:44;95437.34;;;24.89;47.69
22389;BME280;11362;48.102;11.620;2023-07-31T00:27:10;95435.75;;;24.88;47.87
22389;BME280;11362;48.102;11.620;2023-07-31T00:29:35;95436.59;;;24.85;47.46
22389;BME280;11362;48.102;11.620;2023-07-31T00:32:00;95431.84;;;24.85;47.87
22389;BME280;11362;48.102;11.620;2023-07-31T00:34:26;95435.78;;;24.84;47.73
22389;BME280;11362;48.102;11.620;2023-07-31T00:36:51;95440.94;;;24.86;47.81
22389;BME280;11362;48.102;11.620;2023-07-31T00:39:16;95431.03;;;24.85;47.54
22389;BME280;11362;48.102;11.620;2023-07-31T00:41:42;95432.59;;;24.86;47.92
22389;BME280;11362;48.102;11.620;2023-07-31T00:44:07;95431.84;;;24.85;47.64
22389;BME280;11362;48.102;11.620;2023-07-31T00:49:16;95425.06;;;24.86;47.74
22389;BME280;11362;48.102;11.620;2023-07-31T00:51:41;95426.28;;;24.85;47.64
22389;BME280;11362;48.102;11.620;2023-07-31T00:54:06;95425.47;;;24.85;47.78
22389;BME280;11362;48.102;11.620;2023-07-31T00:56:32;95429.06;;;24.85;47.74
22389;BME280;11362;48.102;11.620;2023-07-31T00:58:57;95420.72;;;24.85;47.79
22389;BME280;11362;48.102;11.620;2023-07-31T01:01:23;95419.94;;;24.85;47.78
22389;BME280;11362;48.102;11.620;2023-07-31T01:03:49;95421.50;;;24.86;47.78
22389;BME280;11362;48.102;11.620;2023-07-31T01:06:21;95422.28;;;24.86;47.88
22389;BME280;11362;48.102;11.620;2023-07-31T01:09:01;95420.72;;;24.85;47.98
22389;BME280;11362;48.102;11.620;2023-07-31T01:11:32;95414.38;;;24.85;47.61
22389;BME280;11362;48.102;11.620;2023-07-31T01:16:30;95405.22;;;24.84;47.92
22389;BME280;11362;48.102;11.620;2023-07-31T01:18:55;95408.00;;;24.84;47.58
22389;BME280;11362;48.102;11.620;2023-07-31T01:21:44;95407.25;;;24.84;47.73
22389;BME280;11362;48.102;11.620;2023-07-31T01:24:28;95400.13;;;24.83;47.72
22389;BME280;11362;48.102;11.620;2023-07-31T01:27:04;95408.00;;;24.84;47.60
22389;BME280;11362;48.102;11.620;2023-07-31T01:29:47;95405.69;;;24.83;47.84
22389;BME280;11362;48.102;11.620;2023-07-31T01:32:14;95397.34;;;24.83;47.93
22389;BME280;11362;48.102;11.620;2023-07-31T01:34:41;95385.03;;;24.84;47.73
22389;BME280;11362;48.102;11.620;2023-07-31T01:37:06;95387.00;;;24.83;47.64
22389;BME280;11362;48.102;11.620;2023-07-31T01:39:32;95384.22;;;24.83;47.60
22389;BME280;11362;48.102;11.620;2023-07-31T01:43:41;95391.34;;;24.84;47.69
22389;BME280;11362;48.102;11.620;2023-07-31T01:46:07;95385.03;;;24.84;48.03
22389;BME280;11362;48.102;11.620;2023-07-31T01:48:32;95379.47;;;24.84;47.88
22389;BME280;11362;48.102;11.620;2023-07-31T01:51:00;95385.03;;;24.84;47.82
22389;BME280;11362;48.102;11.620;2023-07-31T01:53:25;95380.22;;;24.84;47.85
22389;BME280;11362;48.102;11.620;2023-07-31T01:55:50;95380.22;;;24.84;47.93
22389;BME280;11362;48.102;11.620;2023-07-31T01:58:16;95383.00;;;24.84;47.74
22389;BME280;11362;48.102;11.620;2023-07-31T02:00:41;95381.03;;;24.85;47.94
22389;BME280;11362;48.102;11.620;2023-07-31T02:03:06;95380.63;;;24.86;47.65
22389;BME280;11362;48.102;11.620;2023-07-31T02:05:31;95373.84;;;24.87;47.57
22389;BME280;11362;48.102;11.620;2023-07-31T02:10:54;95383.38;;;24.86;47.65
22389;BME280;11362;48.102;11.620;2023-07-31T02:13:19;95377.44;;;24.84;47.48
22389;BME280;11362;48.102;11.620;2023-07-31T02:15:45;95378.66;;;24.83;47.84
22389;BME280;11362;48.102;11.620;2023-07-31T02:18:10;95363.56;;;24.84;47.64
22389;BME280;11362;48.102;11.620;2023-07-31T02:20:35;95365.97;;;24.82;47.89
22389;BME280;11362;48.102;11.620;2023-07-31T02:23:01;95366.34;;;24.84;47.69
22389;BME280;11362;48.102;11.620;2023-07-31T02:25:26;95354.47;;;24.84;47.86
22389;BME280;11362;48.102;11.620;2023-07-31T02:27:51;95352.88;;;24.83;47.75
22389;BME280;11362;48.102;11.620;2023-07-31T02:30:17;95360.78;;;24.84;47.97
22389;BME280;11362;48.102;11.620;2023-07-31T02:32:42;95353.66;;;24.83;47.67
22389;BME280;11362;48.102;11.620;2023-07-31T02:37:36;95356.88;;;24.82;47.75
22389;BME280;11362;48.102;11.620;2023-07-31T02:40:01;95345.75;;;24.82;47.93
22389;BME280;11362;48.102;11.620;2023-07-31T02:42:27;95337.44;;;24.82;47.88
22389;BME280;11362;48.102;11.620;2023-07-31T02:44:52;95339.75;;;24.83;47.85
22389;BME280;11362;48.102;11.620;2023-07-31T02:47:17;95334.22;;;24.83;47.75
22389;BME280;11362;48.102;11.620;2023-07-31T02:49:42;95342.53;;;24.83;47.94
22389;BME280;11362;48.102;11.620;2023-07-31T02:52:08;95339.34;;;24.85;47.75
22389;BME280;11362;48.102;11.620;2023-07-31T02:54:33;95331.44;;;24.83;47.63
22389;BME280;11362;48.102;11.620;2023-07-31T02:56:58;95331.44;;;24.83;47.71
22389;BME280;11362;48.102;11.620;2023-07-31T02:59:24;95331.06;;;24.81;47.72
22389;BME280;11362;48.102;11.620;2023-07-31T03:05:03;95334.22;;;24.83;47.71
22389;BME280;11362;48.102;11.620;2023-07-31T03:07:29;95326.31;;;24.82;47.87
22389;BME280;11362;48.102;11.620;2023-07-31T03:09:54;95324.72;;;24.81;47.91
22389;BME280;11362;48.102;11.620;2023-07-31T03:12:19;95323.94;;;24.80;47.65
22389;BME280;11362;48.102;11.620;2023-07-31T03:14:44;95327.16;;;24.79;47.82
22389;BME280;11362;48.102;11.620;2023-07-31T03:17:10;95320.81;;;24.78;47.96
22389;BME280;11362;48.102;11.620;2023-07-31T03:19:35;95324.78;;;24.77;47.92
22389;BME280;11362;48.102;11.620;2023-07-31T03:22:00;95324.78;;;24.77;47.95
22389;BME280;11362;48.102;11.620;2023-07-31T03:24:26;95323.22;;;24.76;47.92
22389;BME280;11362;48.102;11.620;2023-07-31T03:26:51;95323.22;;;24.76;48.05
22389;BME280;11362;48.102;11.620;2023-07-31T03:31:53;95333.13;;;24.77;48.10
22389;BME280;11362;48.102;11.620;2023-07-31T03:34:18;95329.91;;;24.79;47.98
22389;BME280;11362;48.102;11.620;2023-07-31T03:36:44;95336.28;;;24.79;47.85
22389;BME280;11362;48.102;11.620;2023-07-31T03:39:09;95336.63;;;24.81;47.65
22389;BME280;11362;48.102;11.620;2023-07-31T03:41:34;95342.19;;;24.81;47.77
22389;BME280;11362;48.102;11.620;2023-07-31T03:44:00;95337.50;;;24.78;47.86
22389;BME280;11362;48.102;11.620;2023-07-31T03:46:25;95331.13;;;24.78;47.67
22389;BME280;11362;48.102;11.620;2023-07-31T03:48:50;95336.69;;;24.78;47.57
22389;BME280;11362;48.102;11.620;2023-07-31T03:51:16;95336.63;;;24.81;47.42
22389;BME280;11362;48.102;11.620;2023-07-31T03:53:41;95343.41;;;24.80;47.53
22389;BME280;11362;48.102;11.620;2023-07-31T03:58:43;95337.50;;;24.78;47.82
22389;BME280;11362;48.102;11.620;2023-07-31T04:01:09;95344.63;;;24.79;47.43
22389;BME280;11362;48.102;11.620;2023-07-31T04:03:34;95337.50;;;24.78;47.64
22389;BME280;11362;48.102;11.620;2023-07-31T04:05:59;95337.84;;;24.80;47.71
22389;BME280;11362;48.102;11.620;2023-07-31T04:08:24;95333.06;;;24.81;47.51
22389;BME280;11362;48.102;11.620;2023-07-31T04:10:50;95337.03;;;24.80;47.49
22389;BME280;11362;48.102;11.620;2023-07-31T04:13:15;95334.28;;;24.80;47.55
22389;BME280;11362;48.102;11.620;2023-07-31T04:15:41;95323.59;;;24.78;47.78
22389;BME280;11362;48.102;11.620;2023-07-31T04:18:06;95325.94;;;24.80;47.56
22389;BME280;11362;48.102;11.620;2023-07-31T04:20:31;95329.16;;;24.78;47.68
22389;BME280;11362;48.102;11.620;2023-07-31T04:25:34;95330.72;;;24.79;47.67
22389;BME280;11362;48.102;11.620;2023-07-31T04:27:59;95329.50;;;24.80;47.60
22389;BME280;11362;48.102;11.620;2023-07-31T04:30:24;95326.72;;;24.80;47.53
22389;BME280;11362;48.102;11.620;2023-07-31T04:32:49;95331.06;;;24.81;47.81
22389;BME280;11362;48.102;11.620;2023-07-31T04:35:15;95335.06;;;24.80;47.59
22389;BME280;11362;48.102;11.620;2023-07-31T04:37:40;95326.72;;;24.80;47.40
22389;BME280;11362;48.102;11.620;2023-07-31T04:40:06;95322.75;;;24.81;47.62
22389;BME280;11362;48.102;11.620;2023-07-31T04:42:31;95323.16;;;24.80;47.83
22389;BME280;11362;48.102;11.620;2023-07-31T04:44:56;95321.94;;;24.81;47.67
22389;BME280;11362;48.102;11.620;2023-07-31T04:47:22;95323.94;;;24.80;47.44
22389;BME280;11362;48.102;11.620;2023-07-31T04:52:45;95316.38;;;24.81;47.71
22389;BME280;11362;48.102;11.620;2023-07-31T04:55:10;95323.09;;;24.83;47.53
22389;BME280;11362;48.102;11.620;2023-07-31T04:57:35;95316.72;;;24.86;47.45
22389;BME280;11362;48.102;11.620;2023-07-31T05:00:00;95315.84;;;24.89;47.50
22389;BME280;11362;48.102;11.620;2023-07-31T05:02:26;95313.47;;;24.88;47.62
22389;BME280;11362;48.102;11.620;2023-07-31T05:04:51;95315.84;;;24.89;47.47
22389;BME280;11362;48.102;11.620;2023-07-31T05:07:16;95310.69;;;24.88;47.77
22389;BME280;11362;48.102;11.620;2023-07-31T05:09:42;95311.91;;;24.87;47.52
22389;BME280;11362;48.102;11.620;2023-07-31T05:12:07;95313.47;;;24.88;47.10
22389;BME280;11362;48.102;11.620;2023-07-31T05:14:33;95314.28;;;24.88;47.22
22389;BME280;11362;48.102;11.620;2023-07-31T05:19:55;95319.03;;;24.88;47.39
22389;BME280;11362;48.102;11.620;2023-07-31T05:22:21;95316.19;;;24.91;47.60
22389;BME280;11362;48.102;11.620;2023-07-31T05:24:46;95323.69;;;24.94;47.47
22389;BME280;11362;48.102;11.620;2023-07-31T05:27:11;95326.47;;;24.94;47.49
22389;BME280;11362;48.102;11.620;2023-07-31T05:29:37;95319.72;;;24.95;47.33
22389;BME280;11362;48.102;11.620;2023-07-31T05:32:02;95325.25;;;24.95;47.06
22389;BME280;11362;48.102;11.620;2023-07-31T05:34:27;95317.28;;;24.97;46.90
22389;BME280;11362;48.102;11.620;2023-07-31T05:36:53;95319.66;;;24.99;47.24
22389;BME280;11362;48.102;11.620;2023-07-31T05:39:18;95318.09;;;24.98;47.00
22389;BME280;11362;48.102;11.620;2023-07-31T05:41:43;95315.72;;;24.96;46.83
22389;BME280;11362;48.102;11.620;2023-07-31T05:47:06;95314.16;;;24.95;46.74
22389;BME280;11362;48.102;11.620;2023-07-31T05:49:32;95314.16;;;24.95;47.25
22389;BME280;11362;48.102;11.620;2023-07-31T05:51:57;95314.16;;;24.95;47.21
22389;BME280;11362;48.102;11.620;2023-07-31T05:54:22;95303.44;;;24.94;47.14
22389;BME280;11362;48.102;11.620;2023-07-31T05:56:48;95308.59;;;24.95;47.14
22389;BME280;11362;48.102;11.620;2023-07-31T05:59:13;95319.72;;;24.95;47.27
22389;BME280;11362;48.102;11.620;2023-07-31T06:01:38;95315.72;;;24.96;47.10
22389;BME280;11362;48.102;11.620;2023-07-31T06:04:04;95301.09;;;24.92;47.34
22389;BME280;11362;48.102;11.620;2023-07-31T06:06:29;95305.09;;;24.91;46.96
22389;BME280;11362;48.102;11.620;2023-07-31T06:08:54;95308.66;;;24.92;46.94
22389;BME280;11362;48.102;11.620;2023-07-31T06:13:33;95302.31;;;24.91;47.05
22389;BME280;11362;48.102;11.620;2023-07-31T06:15:58;95304.25;;;24.94;47.31
22389;BME280;11362;48.102;11.620;2023-07-31T06:18:23;95307.16;;;24.87;46.56
22389;BME280;11362;48.102;11.620;2023-07-31T06:20:48;95302.63;;;24.74;45.81
22389;BME280;11362;48.102;11.620;2023-07-31T06:23:14;95311.13;;;24.63;45.34
22389;BME280;11362;48.102;11.620;2023-07-31T06:25:39;95316.53;;;24.47;44.58
22389;BME280;11362;48.102;11.620;2023-07-31T06:28:04;95320.81;;;24.29;44.76
22389;BME280;11362;48.102;11.620;2023-07-31T06:30:29;95322.31;;;24.33;44.50
22389;BME280;11362;48.102;11.620;2023-07-31T06:32:55;95324.13;;;24.20;44.14
22389;BME280;11362;48.102;11.620;2023-07-31T06:35:20;95322.81;;;24.28;43.87
22389;BME280;11362;48.102;11.620;2023-07-31T06:40:30;95328.25;;;24.35;43.97
22389;BME280;11362;48.102;11.620;2023-07-31T06:42:55;95323.63;;;24.25;43.30
22389;BME280;11362;48.102;11.620;2023-07-31T06:45:20;95320.97;;;24.18;43.45
22389;BME280;11362;48.102;11.620;2023-07-31T06:47:46;95322.97;;;24.18;43.27
22389;BME280;11362;48.102;11.620;2023-07-31T06:50:11;95328.59;;;24.14;43.08
22389;BME280;11362;48.102;11.620;2023-07-31T06:52:36;95325.91;;;24.07;42.79
22389;BME280;11362;48.102;11.620;2023-07-31T06:55:22;95321.94;;;24.08;42.71
22389;BME280;11362;48.102;11.620;2023-07-31T06:57:48;95321.53;;;24.10;42.86
22389;BME280;11362;48.102;11.620;2023-07-31T07:00:14;95310.88;;;24.05;42.72
22389;BME280;11362;48.102;11.620;2023-07-31T07:05:37;95302.50;;;24.08;42.70
22389;BME280;11362;48.102;11.620;2023-07-31T07:08:02;95303.59;;;24.14;42.54
22389;BME280;11362;48.102;11.620;2023-07-31T07:10:28;95305.47;;;24.21;42.59
22389;BME280;11362;48.102;11.620;2023-07-31T07:12:54;95300.34;;;24.19;42.71
22389;BME280;11362;48.102;11.620;2023-07-31T07:15:19;95309.81;;;24.22;42.85
22389;BME280;11362;48.102;11.620;2023-07-31T07:17:44;95304.22;;;24.25;42.78
22389;BME280;11362;48.102;11.620;2023-07-31T07:20:10;95305.41;;;24.24;42.84
22389;BME280;11362;48.102;11.620;2023-07-31T07:22:35;95310.50;;;24.29;42.90
22389;BME280;11362;48.102;11.620;2023-07-31T07:25:01;95299.41;;;24.29;43.07
22389;BME280;11362;48.102;11.620;2023-07-31T07:27:26;95300.16;;;24.30;42.72
22389;BME280;11362;48.102;11.620;2023-07-31T07:32:23;95308.19;;;24.24;42.52
22389;BME280;11362;48.102;11.620;2023-07-31T07:34:49;95301.06;;;24.23;42.78
22389;BME280;11362;48.102;11.620;2023-07-31T07:37:14;95293.91;;;24.26;42.91
22389;BME280;11362;48.102;11.620;2023-07-31T07:39:39;95293.78;;;24.33;42.56
22389;BME280;11362;48.102;11.620;2023-07-31T07:42:05;95296.19;;;24.31;42.68
22389;BME280;11362;48.102;11.620;2023-07-31T07:44:30;95293.84;;;24.29;42.72
22389;BME280;11362;48.102;11.620;2023-07-31T07:46:55;95292.22;;;24.32;42.79
22389;BME280;11362;48.102;11.620;2023-07-31T07:49:20;95281.53;;;24.30;42.67
22389;BME280;11362;48.102;11.620;2023-07-31T07:51:47;95283.44;;;24.33;42.59
22389;BME280;11362;48.102;11.620;2023-07-31T07:54:12;95285.03;;;24.34;42.62
22389;BME280;11362;48.102;11.620;2023-07-31T07:59:10;95275.63;;;24.28;42.40
22389;BME280;11362;48.102;11.620;2023-07-31T08:01:35;95260.47;;;24.33;42.54
22389;BME280;11362;48.102;11.620;2023-07-31T08:04:01;95259.63;;;24.36;42.41
22389;BME280;11362;48.102;11.620;2023-07-31T08:06:26;95257.19;;;24.38;42.41
22389;BME280;11362;48.102;11.620;2023-07-31T08:08:51;95256.44;;;24.37;42.54
22389;BME280;11362;48.102;11.620;2023-07-31T08:11:16;95249.19;;;24.43;42.44
22389;BME280;11362;48.102;11.620;2023-07-31T08:13:42;95257.88;;;24.45;42.32
22389;BME280;11362;48.102;11.620;2023-07-31T08:16:07;95252.38;;;24.42;42.14
22389;BME280;11362;48.102;11.620;2023-07-31T08:18:32;95257.06;;;24.45;42.44
22389;BME280;11362;48.102;11.620;2023-07-31T08:20:58;95262.69;;;24.41;42.52
22389;BME280;11362;48.102;11.620;2023-07-31T08:26:00;95273.56;;;24.32;41.98
22389;BME280;11362;48.102;11.620;2023-07-31T08:28:26;95268.38;;;24.34;41.68
22389;BME280;11362;48.102;11.620;2023-07-31T08:30:51;95255.75;;;24.30;41.13
22389;BME280;11362;48.102;11.620;2023-07-31T08:33:16;95258.84;;;24.35;41.07
22389;BME280;11362;48.102;11.620;2023-07-31T08:35:41;95260.91;;;24.31;41.14
22389;BME280;11362;48.102;11.620;2023-07-31T08:38:07;95259.31;;;24.30;40.89
22389;BME280;11362;48.102;11.620;2023-07-31T08:40:36;95265.22;;;24.32;40.90
22389;BME280;11362;48.102;11.620;2023-07-31T08:43:01;95258.97;;;24.28;40.68
22389;BME280;11362;48.102;11.620;2023-07-31T08:45:27;95255.81;;;24.26;40.37
22389;BME280;11362;48.102;11.620;2023-07-31T08:47:53;95264.59;;;24.25;40.82
22389;BME280;11362;48.102;11.620;2023-07-31T08:50:20;95255.41;;;24.28;40.92
22389;BME280;11362;48.102;11.620;2023-07-31T08:54:57;95254.59;;;24.27;40.79
22389;BME280;11362;48.102;11.620;2023-07-31T08:57:23;95249.84;;;24.28;40.76
22389;BME280;11362;48.102;11.620;2023-07-31T08:59:49;95243.94;;;24.26;40.56
22389;BME280;11362;48.102;11.620;2023-07-31T09:02:15;95246.28;;;24.27;40.44
22389;BME280;11362;48.102;11.620;2023-07-31T09:04:41;95242.38;;;24.25;40.48
22389;BME280;11362;48.102;11.620;2023-07-31T09:07:06;95257.38;;;24.27;40.49
22389;BME280;11362;48.102;11.620;2023-07-31T09:09:32;95251.47;;;24.25;40.64
22389;BME280;11362;48.102;11.620;2023-07-31T09:11:58;95253.03;;;24.26;40.56
22389;BME280;11362;48.102;11.620;2023-07-31T09:14:25;95266.19;;;24.22;40.40
22389;BME280;11362;48.102;11.620;2023-07-31T09:16:52;95257.88;;;24.22;40.45
22389;BME280;11362;48.102;11.620;2023-07-31T09:21:23;95241.22;;;24.22;40.43
22389;BME280;11362;48.102;11.620;2023-07-31T09:23:49;95250.31;;;24.23;40.29
22389;BME280;11362;48.102;11.620;2023-07-31T09:26:35;95239.66;;;24.21;40.54
22389;BME280;11362;48.102;11.620;2023-07-31T09:29:04;95233.59;;;24.26;40.52
22389;BME280;11362;48.102;11.620;2023-07-31T09:31:39;95231.28;;;24.25;40.50
22389;BME280;11362;48.102;11.620;2023-07-31T09:34:05;95242.38;;;24.25;40.38
22389;BME280;11362;48.102;11.620;2023-07-31T09:36:30;95246.28;;;24.27;40.37
22389;BME280;11362;48.102;11.620;2023-07-31T09:38:55;95252.69;;;24.24;40.45
22389;BME280;11362;48.102;11.620;2023-07-31T09:41:21;95243.13;;;24.25;40.32
22389;BME280;11362;48.102;11.620;2023-07-31T09:43:53;95243.13;;;24.25;40.08
22389;BME280;11362;48.102;11.620;2023-07-31T09:47:49;95227.34;;;24.22;39.96
22389;BME280;11362;48.102;11.620;2023-07-31T09:50:14;95232.91;;;24.22;39.63
22389;BME280;11362;48.102;11.620;2023-07-31T09:52:40;95216.19;;;24.26;39.88
22389;BME280;11362;48.102;11.620;2023-07-31T09:55:05;95219.66;;;24.30;39.92
22389;BME280;11362;48.102;11.620;2023-07-31T09:57:31;95216.13;;;24.29;40.00
22389;BME280;11362;48.102;11.620;2023-07-31T09:59:57;95216.19;;;24.26;40.02
22389;BME280;11362;48.102;11.620;2023-07-31T10:02:23;95200.22;;;24.30;39.94
22389;BME280;11362;48.102;11.620;2023-07-31T10:04:50;95198.66;;;24.29;40.09
22389;BME280;11362;48.102;11.620;2023-07-31T10:07:17;95193.13;;;24.29;40.33
22389;BME280;11362;48.102;11.620;2023-07-31T10:09:43;95191.84;;;24.33;40.27
22389;BME280;11362;48.102;11.620;2023-07-31T10:14:46;95185.06;;;24.34;40.11
22389;BME280;11362;48.102;11.620;2023-07-31T10:17:13;95180.38;;;24.31;39.94
22389;BME280;11362;48.102;11.620;2023-07-31T10:19:39;95168.06;;;24.32;40.06
22389;BME280;11362;48.102;11.620;2023-07-31T10:22:05;95166.94;;;24.30;39.96
22389;BME280;11362;48.102;11.620;2023-07-31T10:24:31;95160.53;;;24.33;39.68
22389;BME280;11362;48.102;11.620;2023-07-31T10:26:58;95149.44;;;24.33;39.78
22389;BME280;11362;48.102;11.620;2023-07-31T10:29:25;95158.53;;;24.33;39.63
22389;BME280;11362;48.102;11.620;2023-07-31T10:31:51;95154.13;;;24.36;39.57
22389;BME280;11362;48.102;11.620;2023-07-31T10:34:17;95155.75;;;24.33;39.62
22389;BME280;11362;48.102;11.620;2023-07-31T10:36:43;95147.06;;;24.31;39.12
22389;BME280;11362;48.102;11.620;2023-07-31T10:41:30;95151.00;;;24.34;38.92
22389;BME280;11362;48.102;11.620;2023-07-31T10:44:00;95135.97;;;24.31;38.83
22389;BME280;11362;48.102;11.620;2023-07-31T10:46:28;95141.19;;;24.29;38.92
22389;BME280;11362;48.102;11.620;2023-07-31T10:49:01;95148.63;;;24.32;38.99
22389;BME280;11362;48.102;11.620;2023-07-31T10:51:34;95152.28;;;24.29;38.74
22389;BME280;11362;48.102;11.620;2023-07-31T10:54:10;95143.16;;;24.29;38.87
22389;BME280;11362;48.102;11.620;2023-07-31T10:56:39;95143.94;;;24.29;38.73
22389;BME280;11362;48.102;11.620;2023-07-31T10:59:04;95135.09;;;24.34;38.83
22389;BME280;11362;48.102;11.620;2023-07-31T11:01:52;95146.22;;;24.34;38.72
22389;BME280;11362;48.102;11.620;2023-07-31T11:07:08;95142.47;;;24.44;38.81
22389;BME280;11362;48.102;11.620;2023-07-31T11:09:33;95134.50;;;24.46;38.85
22389;BME280;11362;48.102;11.620;2023-07-31T11:11:59;95130.00;;;24.52;38.63
22389;BME280;11362;48.102;11.620;2023-07-31T11:14:25;95118.91;;;24.52;38.87
22389;BME280;11362;48.102;11.620;2023-07-31T11:16:51;95131.56;;;24.53;38.87
22389;BME280;11362;48.102;11.620;2023-07-31T11:19:21;95123.63;;;24.55;39.08
22389;BME280;11362;48.102;11.620;2023-07-31T11:21:47;95134.72;;;24.55;38.73
22389;BME280;11362;48.102;11.620;2023-07-31T11:24:13;95123.63;;;24.55;38.98
22389;BME280;11362;48.102;11.620;2023-07-31T11:26:38;95127.59;;;24.54;38.98
22389;BME280;11362;48.102;11.620;2023-07-31T11:29:11;95127.97;;;24.56;39.10
22389;BME280;11362;48.102;11.620;2023-07-31T11:34:09;95112.91;;;24.57;39.22
22389;BME280;11362;48.102;11.620;2023-07-31T11:36:34;95098.63;;;24.55;39.15
22389;BME280;11362;48.102;11.620;2023-07-31T11:39:07;95100.56;;;24.58;39.27
22389;BME280;11362;48.102;11.620;2023-07-31T11:41:33;95091.03;;;24.59;39.35
22389;BME280;11362;48.102;11.620;2023-07-31T11:44:00;95096.94;;;24.61;39.25
22389;BME280;11362;48.102;11.620;2023-07-31T11:46:25;95087.38;;;24.62;39.17
22389;BME280;11362;48.102;11.620;2023-07-31T11:48:50;95093.31;;;24.64;39.23
22389;BME280;11362;48.102;11.620;2023-07-31T11:51:16;95090.16;;;24.62;39.28
22389;BME280;11362;48.102;11.620;2023-07-31T11:53:47;95080.25;;;24.61;39.17
22389;BME280;11362;48.102;11.620;2023-07-31T11:56:17;95070.72;;;24.62;39.23
22389;BME280;11362;48.102;11.620;2023-07-31T12:01:36;95065.09;;;24.66;39.18
22389;BME280;11362;48.102;11.620;2023-07-31T12:04:02;95063.44;;;24.68;39.26
22389;BME280;11362;48.102;11.620;2023-07-31T12:06:34;95051.13;;;24.69;39.25
22389;BME280;11362;48.102;11.620;2023-07-31T12:09:04;95045.56;;;24.69;39.25
22389;BME280;11362;48.102;11.620;2023-07-31T12:11:29;95053.91;;;24.69;39.42
22389;BME280;11362;48.102;11.620;2023-07-31T12:13:54;95042.44;;;24.67;39.33
22389;BME280;11362;48.102;11.620;2023-07-31T12:16:19;95042.44;;;24.67;39.58
22389;BME280;11362;48.102;11.620;2023-07-31T12:18:45;95032.56;;;24.66;39.27
22389;BME280;11362;48.102;11.620;2023-07-31T12:21:10;95030.47;;;24.70;39.46
22389;BME280;11362;48.102;11.620;2023-07-31T12:23:36;95032.81;;;24.72;39.37
22389;BME280;11362;48.102;11.620;2023-07-31T12:28:06;95032.91;;;24.68;39.29
22389;BME280;11362;48.102;11.620;2023-07-31T12:30:34;95026.84;;;24.73;39.51
22389;BME280;11362;48.102;11.620;2023-07-31T12:33:15;95022.44;;;24.76;39.20
22389;BME280;11362;48.102;11.620;2023-07-31T12:35:46;95012.88;;;24.77;39.04
22389;BME280;11362;48.102;11.620;2023-07-31T12:38:12;95011.75;;;24.74;39.30
22389;BME280;11362;48.102;11.620;2023-07-31T12:40:38;95016.09;;;24.75;39.17
22389;BME280;11362;48.102;11.620;2023-07-31T12:43:03;94999.41;;;24.75;39.63
22389;BME280;11362;48.102;11.620;2023-07-31T12:45:29;94990.22;;;24.78;39.14
22389;BME280;11362;48.102;11.620;2023-07-31T12:47:55;94998.56;;;24.78;39.37
22389;BME280;11362;48.102;11.620;2023-07-31T12:50:20;94991.34;;;24.81;39.11
22389;BME280;11362;48.102;11.620;2023-07-31T12:54:59;94976.34;;;24.78;39.17
22389;BME280;11362;48.102;11.620;2023-07-31T12:57:24;94977.91;;;24.79;39.34
22389;BME280;11362;48.102;11.620;2023-07-31T12:59:49;94980.31;;;24.77;39.39
22389;BME280;11362;48.102;11.620;2023-07-31T13:02:15;94980.31;;;24.77;39.00
22389;BME280;11362;48.102;11.620;2023-07-31T13:04:40;94972.34;;;24.79;39.48
22389;BME280;11362;48.102;11.620;2023-07-31T13:07:05;94973.91;;;24.80;39.28
22389;BME280;11362;48.102;11.620;2023-07-31T13:09:30;94974.59;;;24.84;39.26
22389;BME280;11362;48.102;11.620;2023-07-31T13:11:56;94971.38;;;24.86;39.06
22389;BME280;11362;48.102;11.620;2023-07-31T13:14:21;94976.88;;;24.89;39.09
22389;BME280;11362;48.102;11.620;2023-07-31T13:16:46;94971.66;;;24.91;39.35
22389;BME280;11362;48.102;11.620;2023-07-31T13:20:55;94996.66;;;24.91;39.04
22389;BME280;11362;48.102;11.620;2023-07-31T13:23:20;94980.88;;;24.88;39.30
22389;BME280;11362;48.102;11.620;2023-07-31T13:25:45;94980.53;;;24.86;39.02
22389;BME280;11362;48.102;11.620;2023-07-31T13:28:10;94980.16;;;24.84;39.08
22389;BME280;11362;48.102;11.620;2023-07-31T13:30:36;94981.38;;;24.83;38.90
22389;BME280;11362;48.102;11.620;2023-07-31T13:33:01;94968.28;;;24.84;38.91
22389;BME280;11362;48.102;11.620;2023-07-31T13:35:26;94970.25;;;24.83;38.93
22389;BME280;11362;48.102;11.620;2023-07-31T13:37:51;94966.25;;;24.84;38.76
22389;BME280;11362;48.102;11.620;2023-07-31T13:40:17;94956.72;;;24.85;38.77
22389;BME280;11362;48.102;11.620;2023-07-31T13:42:42;94957.50;;;24.86;38.96
22389;BME280;11362;48.102;11.620;2023-07-31T13:48:22;94950.22;;;24.92;39.02
22389;BME280;11362;48.102;11.620;2023-07-31T13:50:47;94938.69;;;24.93;38.99
22389;BME280;11362;48.102;11.620;2023-07-31T13:53:12;94933.03;;;24.97;39.06
22389;BME280;11362;48.102;11.620;2023-07-31T13:55:37;94929.03;;;24.98;38.94
22389;BME280;11362;48.102;11.620;2023-07-31T13:58:03;94928.25;;;24.97;38.80
22389;BME280;11362;48.102;11.620;2023-07-31T14:00:28;94934.13;;;24.99;39.01
22389;BME280;11362;48.102;11.620;2023-07-31T14:02:53;94920.94;;;25.03;38.79
22389;BME280;11362;48.102;11.620;2023-07-31T14:05:19;94911.41;;;25.04;38.86